sensor_id;sensor_type;location;lat;lon;timestamp;P1;durP1;ratioP1;P2;durP2;ratioP2
77158;SDS011;66129;45.890;13.714;2023-10-13T00:01:55;54.20;;;24.73;;
77158;SDS011;66129;45.890;13.714;2023-10-13T00:04:24;49.15;;;24.27;;
77158;SDS011;66129;45.890;13.714;2023-10-13T00:06:53;44.53;;;22.23;;
77158;SDS011;66129;45.890;13.714;2023-10-13T00:09:22;52.45;;;25.00;;
77158;SDS011;66129;45.890;13.714;2023-10-13T00:11:57;48.03;;;23.40;;
77158;SDS011;66129;45.890;13.714;2023-10-13T00:14:26;51.53;;;24.90;;
77158;SDS011;66129;45.890;13.714;2023-10-13T00:17:02;52.97;;;24.65;;
77158;SDS011;66129;45.890;13.714;2023-10-13T00:22:28;53.33;;;26.25;;
77158;SDS011;66129;45.890;13.714;2023-10-13T00:24:56;54.75;;;25.10;;
77158;SDS011;66129;45.890;13.714;2023-10-13T00:27:28;52.30;;;26.40;;
77158;SDS011;66129;45.890;13.714;2023-10-13T00:29:58;49.72;;;25.23;;
77158;SDS011;66129;45.890;13.714;2023-10-13T00:35:29;50.60;;;25.50;;
77158;SDS011;66129;45.890;13.714;2023-10-13T00:38:01;52.05;;;24.48;;
77158;SDS011;66129;45.890;13.714;2023-10-13T00:40:42;47.30;;;25.15;;
77158;SDS011;66129;45.890;13.714;2023-10-13T00:43:18;56.50;;;23.20;;
77158;SDS011;66129;45.890;13.714;2023-10-13T00:45:45;46.85;;;23.85;;
77158;SDS011;66129;45.890;13.714;2023-10-13T00:48:37;50.78;;;25.75;;
77158;SDS011;66129;45.890;13.714;2023-10-13T00:51:08;49.72;;;25.45;;
77158;SDS011;66129;45.890;13.714;2023-10-13T00:53:57;46.72;;;23.25;;
77158;SDS011;66129;45.890;13.714;2023-10-13T00:56:25;48.63;;;25.02;;
77158;SDS011;66129;45.890;13.714;2023-10-13T00:58:53;47.47;;;22.50;;
77158;SDS011;66129;45.890;13.714;2023-10-13T01:01:22;43.03;;;22.73;;
77158;SDS011;66129;45.890;13.714;2023-10-13T01:03:48;52.45;;;24.77;;
77158;SDS011;66129;45.890;13.714;2023-10-13T01:06:18;56.30;;;26.15;;
77158;SDS011;66129;45.890;13.714;2023-10-13T01:08:45;50.28;;;25.17;;
77158;SDS011;66129;45.890;13.714;2023-10-13T01:13:42;52.65;;;24.77;;
77158;SDS011;66129;45.890;13.714;2023-10-13T01:16:08;48.83;;;25.42;;
77158;SDS011;66129;45.890;13.714;2023-10-13T01:18:33;48.47;;;25.13;;
77158;SDS011;66129;45.890;13.714;2023-10-13T01:21:12;49.05;;;24.92;;
77158;SDS011;66129;45.890;13.714;2023-10-13T01:23:40;48.63;;;25.92;;
77158;SDS011;66129;45.890;13.714;2023-10-13T01:26:07;57.28;;;25.75;;
77158;SDS011;66129;45.890;13.714;2023-10-13T01:28:34;53.10;;;24.98;;
77158;SDS011;66129;45.890;13.714;2023-10-13T01:31:10;45.83;;;23.73;;
77158;SDS011;66129;45.890;13.714;2023-10-13T01:33:38;46.80;;;24.20;;
77158;SDS011;66129;45.890;13.714;2023-10-13T01:36:03;56.85;;;26.30;;
77158;SDS011;66129;45.890;13.714;2023-10-13T01:38:34;47.67;;;25.05;;
77158;SDS011;66129;45.890;13.714;2023-10-13T01:41:05;53.85;;;24.42;;
77158;SDS011;66129;45.890;13.714;2023-10-13T01:43:31;48.28;;;24.30;;
77158;SDS011;66129;45.890;13.714;2023-10-13T01:45:56;44.33;;;23.58;;
77158;SDS011;66129;45.890;13.714;2023-10-13T01:48:22;48.53;;;22.92;;
77158;SDS011;66129;45.890;13.714;2023-10-13T01:50:47;46.30;;;23.08;;
77158;SDS011;66129;45.890;13.714;2023-10-13T01:53:17;44.03;;;23.52;;
77158;SDS011;66129;45.890;13.714;2023-10-13T01:55:44;44.60;;;22.35;;
77158;SDS011;66129;45.890;13.714;2023-10-13T01:58:10;46.00;;;22.45;;
77158;SDS011;66129;45.890;13.714;2023-10-13T02:00:40;46.78;;;22.88;;
77158;SDS011;66129;45.890;13.714;2023-10-13T02:03:08;47.53;;;22.50;;
77158;SDS011;66129;45.890;13.714;2023-10-13T02:05:40;42.00;;;22.13;;
77158;SDS011;66129;45.890;13.714;2023-10-13T02:08:09;42.80;;;22.65;;
77158;SDS011;66129;45.890;13.714;2023-10-13T02:10:36;41.60;;;20.60;;
77158;SDS011;66129;45.890;13.714;2023-10-13T02:13:10;43.33;;;22.95;;
77158;SDS011;66129;45.890;13.714;2023-10-13T02:15:41;38.97;;;20.90;;
77158;SDS011;66129;45.890;13.714;2023-10-13T02:18:13;38.22;;;21.98;;
77158;SDS011;66129;45.890;13.714;2023-10-13T02:21:03;39.85;;;20.75;;
77158;SDS011;66129;45.890;13.714;2023-10-13T02:23:30;39.38;;;21.48;;
77158;SDS011;66129;45.890;13.714;2023-10-13T02:26:04;45.70;;;22.80;;
77158;SDS011;66129;45.890;13.714;2023-10-13T02:28:37;38.45;;;22.02;;
77158;SDS011;66129;45.890;13.714;2023-10-13T02:31:02;41.00;;;21.63;;
77158;SDS011;66129;45.890;13.714;2023-10-13T02:33:29;43.72;;;22.15;;
77158;SDS011;66129;45.890;13.714;2023-10-13T02:35:56;49.38;;;22.52;;
77158;SDS011;66129;45.890;13.714;2023-10-13T02:38:29;43.08;;;21.00;;
77158;SDS011;66129;45.890;13.714;2023-10-13T02:41:03;46.13;;;22.33;;
77158;SDS011;66129;45.890;13.714;2023-10-13T02:43:34;39.58;;;21.73;;
77158;SDS011;66129;45.890;13.714;2023-10-13T02:46:01;42.85;;;23.33;;
77158;SDS011;66129;45.890;13.714;2023-10-13T02:48:27;45.90;;;22.45;;
77158;SDS011;66129;45.890;13.714;2023-10-13T02:51:05;43.35;;;22.00;;
77158;SDS011;66129;45.890;13.714;2023-10-13T02:53:40;44.08;;;22.58;;
77158;SDS011;66129;45.890;13.714;2023-10-13T02:56:06;41.88;;;22.40;;
77158;SDS011;66129;45.890;13.714;2023-10-13T02:58:32;43.05;;;22.50;;
77158;SDS011;66129;45.890;13.714;2023-10-13T03:01:22;42.25;;;22.52;;
77158;SDS011;66129;45.890;13.714;2023-10-13T03:03:53;44.00;;;22.58;;
77158;SDS011;66129;45.890;13.714;2023-10-13T03:06:21;42.60;;;21.13;;
77158;SDS011;66129;45.890;13.714;2023-10-13T03:08:49;41.63;;;23.02;;
77158;SDS011;66129;45.890;13.714;2023-10-13T03:11:14;40.22;;;22.63;;
77158;SDS011;66129;45.890;13.714;2023-10-13T03:13:46;47.83;;;22.92;;
77158;SDS011;66129;45.890;13.714;2023-10-13T03:16:13;47.03;;;23.48;;
77158;SDS011;66129;45.890;13.714;2023-10-13T03:18:44;42.95;;;21.38;;
77158;SDS011;66129;45.890;13.714;2023-10-13T03:21:19;38.30;;;20.15;;
77158;SDS011;66129;45.890;13.714;2023-10-13T03:23:56;41.80;;;21.48;;
77158;SDS011;66129;45.890;13.714;2023-10-13T03:26:31;39.53;;;19.95;;
77158;SDS011;66129;45.890;13.714;2023-10-13T03:29:02;41.70;;;20.58;;
77158;SDS011;66129;45.890;13.714;2023-10-13T03:31:38;37.85;;;20.45;;
77158;SDS011;66129;45.890;13.714;2023-10-13T03:34:04;38.83;;;18.77;;
77158;SDS011;66129;45.890;13.714;2023-10-13T03:36:31;46.45;;;20.38;;
77158;SDS011;66129;45.890;13.714;2023-10-13T03:39:15;44.45;;;20.27;;
77158;SDS011;66129;45.890;13.714;2023-10-13T03:41:40;39.28;;;22.20;;
77158;SDS011;66129;45.890;13.714;2023-10-13T03:44:06;39.50;;;20.70;;
77158;SDS011;66129;45.890;13.714;2023-10-13T03:46:40;42.85;;;20.13;;
77158;SDS011;66129;45.890;13.714;2023-10-13T03:49:10;40.90;;;20.75;;
77158;SDS011;66129;45.890;13.714;2023-10-13T03:51:41;41.70;;;22.35;;
77158;SDS011;66129;45.890;13.714;2023-10-13T03:54:06;41.30;;;21.65;;
77158;SDS011;66129;45.890;13.714;2023-10-13T03:56:35;41.97;;;20.45;;
77158;SDS011;66129;45.890;13.714;2023-10-13T03:59:03;40.25;;;22.38;;
77158;SDS011;66129;45.890;13.714;2023-10-13T04:01:34;42.65;;;22.77;;
77158;SDS011;66129;45.890;13.714;2023-10-13T04:04:11;49.70;;;23.00;;
77158;SDS011;66129;45.890;13.714;2023-10-13T04:06:37;47.83;;;20.88;;
77158;SDS011;66129;45.890;13.714;2023-10-13T04:09:19;37.30;;;20.35;;
77158;SDS011;66129;45.890;13.714;2023-10-13T04:12:01;37.40;;;20.48;;
77158;SDS011;66129;45.890;13.714;2023-10-13T04:14:29;38.38;;;22.58;;
77158;SDS011;66129;45.890;13.714;2023-10-13T04:17:07;42.83;;;20.42;;
77158;SDS011;66129;45.890;13.714;2023-10-13T04:19:39;44.78;;;22.27;;
77158;SDS011;66129;45.890;13.714;2023-10-13T04:22:25;41.53;;;21.60;;
77158;SDS011;66129;45.890;13.714;2023-10-13T04:28:08;37.05;;;20.48;;
77158;SDS011;66129;45.890;13.714;2023-10-13T04:30:58;39.67;;;19.50;;
77158;SDS011;66129;45.890;13.714;2023-10-13T04:36:08;43.97;;;20.40;;
77158;SDS011;66129;45.890;13.714;2023-10-13T04:38:43;42.92;;;22.20;;
77158;SDS011;66129;45.890;13.714;2023-10-13T04:44:22;40.58;;;21.70;;
77158;SDS011;66129;45.890;13.714;2023-10-13T04:47:06;40.05;;;21.73;;
77158;SDS011;66129;45.890;13.714;2023-10-13T04:49:39;49.45;;;23.08;;
77158;SDS011;66129;45.890;13.714;2023-10-13T04:52:08;42.00;;;22.05;;
77158;SDS011;66129;45.890;13.714;2023-10-13T04:54:38;42.03;;;21.55;;
77158;SDS011;66129;45.890;13.714;2023-10-13T04:57:14;45.60;;;22.88;;
77158;SDS011;66129;45.890;13.714;2023-10-13T05:00:03;44.13;;;22.10;;
77158;SDS011;66129;45.890;13.714;2023-10-13T05:02:36;47.60;;;22.85;;
77158;SDS011;66129;45.890;13.714;2023-10-13T05:05:08;44.08;;;23.45;;
77158;SDS011;66129;45.890;13.714;2023-10-13T05:07:43;48.75;;;23.55;;
77158;SDS011;66129;45.890;13.714;2023-10-13T05:10:31;42.72;;;21.25;;
77158;SDS011;66129;45.890;13.714;2023-10-13T05:13:16;38.08;;;21.02;;
77158;SDS011;66129;45.890;13.714;2023-10-13T05:15:59;42.10;;;20.70;;
77158;SDS011;66129;45.890;13.714;2023-10-13T05:18:43;42.92;;;20.90;;
77158;SDS011;66129;45.890;13.714;2023-10-13T05:21:28;42.00;;;22.13;;
77158;SDS011;66129;45.890;13.714;2023-10-13T05:24:12;41.72;;;21.02;;
77158;SDS011;66129;45.890;13.714;2023-10-13T05:26:56;46.08;;;22.05;;
77158;SDS011;66129;45.890;13.714;2023-10-13T05:29:40;43.70;;;20.75;;
77158;SDS011;66129;45.890;13.714;2023-10-13T05:32:25;42.80;;;21.10;;
77158;SDS011;66129;45.890;13.714;2023-10-13T05:35:09;39.55;;;19.67;;
77158;SDS011;66129;45.890;13.714;2023-10-13T05:37:54;43.45;;;22.05;;
77158;SDS011;66129;45.890;13.714;2023-10-13T05:40:38;39.40;;;20.75;;
77158;SDS011;66129;45.890;13.714;2023-10-13T05:43:22;36.90;;;20.08;;
77158;SDS011;66129;45.890;13.714;2023-10-13T05:46:06;37.22;;;20.02;;
77158;SDS011;66129;45.890;13.714;2023-10-13T05:48:50;39.05;;;19.58;;
77158;SDS011;66129;45.890;13.714;2023-10-13T05:51:25;37.95;;;21.63;;
77158;SDS011;66129;45.890;13.714;2023-10-13T05:53:57;36.70;;;18.92;;
77158;SDS011;66129;45.890;13.714;2023-10-13T05:56:41;31.40;;;18.45;;
77158;SDS011;66129;45.890;13.714;2023-10-13T05:59:32;39.25;;;20.92;;
77158;SDS011;66129;45.890;13.714;2023-10-13T06:02:18;32.67;;;17.88;;
77158;SDS011;66129;45.890;13.714;2023-10-13T06:05:06;36.60;;;20.88;;
77158;SDS011;66129;45.890;13.714;2023-10-13T06:07:54;39.75;;;21.25;;
77158;SDS011;66129;45.890;13.714;2023-10-13T06:10:40;42.20;;;20.45;;
77158;SDS011;66129;45.890;13.714;2023-10-13T06:13:25;42.03;;;20.88;;
77158;SDS011;66129;45.890;13.714;2023-10-13T06:16:10;44.30;;;20.98;;
77158;SDS011;66129;45.890;13.714;2023-10-13T06:19:00;37.42;;;19.52;;
77158;SDS011;66129;45.890;13.714;2023-10-13T06:21:45;36.00;;;20.95;;
77158;SDS011;66129;45.890;13.714;2023-10-13T06:24:30;42.05;;;21.35;;
77158;SDS011;66129;45.890;13.714;2023-10-13T06:27:15;43.42;;;22.30;;
77158;SDS011;66129;45.890;13.714;2023-10-13T06:30:00;40.10;;;21.55;;
77158;SDS011;66129;45.890;13.714;2023-10-13T06:32:31;48.33;;;22.25;;
77158;SDS011;66129;45.890;13.714;2023-10-13T06:34:58;41.97;;;21.42;;
77158;SDS011;66129;45.890;13.714;2023-10-13T06:37:30;37.80;;;19.92;;
77158;SDS011;66129;45.890;13.714;2023-10-13T06:39:56;41.85;;;21.67;;
77158;SDS011;66129;45.890;13.714;2023-10-13T06:42:33;43.15;;;20.27;;
77158;SDS011;66129;45.890;13.714;2023-10-13T06:45:07;39.97;;;20.63;;
77158;SDS011;66129;45.890;13.714;2023-10-13T06:47:34;36.63;;;18.88;;
77158;SDS011;66129;45.890;13.714;2023-10-13T06:50:05;33.80;;;18.48;;
77158;SDS011;66129;45.890;13.714;2023-10-13T06:52:40;36.70;;;17.65;;
77158;SDS011;66129;45.890;13.714;2023-10-13T06:55:09;37.00;;;19.13;;
77158;SDS011;66129;45.890;13.714;2023-10-13T06:57:42;29.50;;;18.38;;
77158;SDS011;66129;45.890;13.714;2023-10-13T07:00:12;34.28;;;18.90;;
77158;SDS011;66129;45.890;13.714;2023-10-13T07:02:57;34.13;;;18.38;;
77158;SDS011;66129;45.890;13.714;2023-10-13T07:05:33;33.33;;;18.90;;
77158;SDS011;66129;45.890;13.714;2023-10-13T07:08:06;38.72;;;20.33;;
77158;SDS011;66129;45.890;13.714;2023-10-13T07:10:32;35.75;;;19.27;;
77158;SDS011;66129;45.890;13.714;2023-10-13T07:13:10;38.15;;;18.65;;
77158;SDS011;66129;45.890;13.714;2023-10-13T07:15:38;33.25;;;19.30;;
77158;SDS011;66129;45.890;13.714;2023-10-13T07:18:10;28.75;;;16.73;;
77158;SDS011;66129;45.890;13.714;2023-10-13T07:20:41;30.20;;;17.27;;
77158;SDS011;66129;45.890;13.714;2023-10-13T07:23:10;32.80;;;17.30;;
77158;SDS011;66129;45.890;13.714;2023-10-13T07:25:55;34.72;;;18.83;;
77158;SDS011;66129;45.890;13.714;2023-10-13T07:28:28;30.15;;;16.15;;
77158;SDS011;66129;45.890;13.714;2023-10-13T07:30:56;28.00;;;15.43;;
77158;SDS011;66129;45.890;13.714;2023-10-13T07:33:24;26.15;;;14.77;;
77158;SDS011;66129;45.890;13.714;2023-10-13T07:36:06;25.98;;;15.10;;
77158;SDS011;66129;45.890;13.714;2023-10-13T07:38:43;28.67;;;14.50;;
77158;SDS011;66129;45.890;13.714;2023-10-13T07:41:34;29.52;;;15.57;;
77158;SDS011;66129;45.890;13.714;2023-10-13T07:44:01;26.67;;;15.88;;
77158;SDS011;66129;45.890;13.714;2023-10-13T07:46:29;27.67;;;15.02;;
77158;SDS011;66129;45.890;13.714;2023-10-13T07:48:58;28.92;;;15.10;;
77158;SDS011;66129;45.890;13.714;2023-10-13T07:51:40;28.20;;;16.10;;
77158;SDS011;66129;45.890;13.714;2023-10-13T07:54:15;24.52;;;15.18;;
77158;SDS011;66129;45.890;13.714;2023-10-13T07:56:49;29.05;;;15.07;;
77158;SDS011;66129;45.890;13.714;2023-10-13T07:59:15;24.88;;;14.18;;
77158;SDS011;66129;45.890;13.714;2023-10-13T08:01:41;26.92;;;16.70;;
77158;SDS011;66129;45.890;13.714;2023-10-13T08:04:08;26.95;;;15.98;;
77158;SDS011;66129;45.890;13.714;2023-10-13T08:06:38;29.17;;;16.50;;
77158;SDS011;66129;45.890;13.714;2023-10-13T08:09:08;26.33;;;15.57;;
77158;SDS011;66129;45.890;13.714;2023-10-13T08:11:37;31.77;;;15.38;;
77158;SDS011;66129;45.890;13.714;2023-10-13T08:14:03;27.83;;;15.25;;
77158;SDS011;66129;45.890;13.714;2023-10-13T08:16:40;25.55;;;15.18;;
77158;SDS011;66129;45.890;13.714;2023-10-13T08:19:20;30.73;;;15.35;;
77158;SDS011;66129;45.890;13.714;2023-10-13T08:21:53;25.58;;;14.05;;
77158;SDS011;66129;45.890;13.714;2023-10-13T08:24:24;26.02;;;14.75;;
77158;SDS011;66129;45.890;13.714;2023-10-13T08:27:11;27.02;;;14.07;;
77158;SDS011;66129;45.890;13.714;2023-10-13T08:29:44;27.60;;;14.70;;
77158;SDS011;66129;45.890;13.714;2023-10-13T08:32:28;22.80;;;13.85;;
77158;SDS011;66129;45.890;13.714;2023-10-13T08:34:55;28.67;;;15.07;;
77158;SDS011;66129;45.890;13.714;2023-10-13T08:37:22;24.60;;;14.82;;
77158;SDS011;66129;45.890;13.714;2023-10-13T08:39:51;27.83;;;14.82;;
77158;SDS011;66129;45.890;13.714;2023-10-13T08:42:33;24.85;;;15.27;;
77158;SDS011;66129;45.890;13.714;2023-10-13T08:45:14;28.10;;;14.38;;
77158;SDS011;66129;45.890;13.714;2023-10-13T08:53:15;34.58;;;19.65;;
77158;SDS011;66129;45.890;13.714;2023-10-13T08:56:07;37.85;;;18.25;;
77158;SDS011;66129;45.890;13.714;2023-10-13T08:58:35;35.85;;;19.05;;
77158;SDS011;66129;45.890;13.714;2023-10-13T09:01:23;40.38;;;19.98;;
77158;SDS011;66129;45.890;13.714;2023-10-13T09:04:03;35.97;;;17.95;;
77158;SDS011;66129;45.890;13.714;2023-10-13T09:06:49;37.42;;;19.80;;
77158;SDS011;66129;45.890;13.714;2023-10-13T09:12:23;39.00;;;20.70;;
77158;SDS011;66129;45.890;13.714;2023-10-13T09:15:03;39.08;;;19.35;;
77158;SDS011;66129;45.890;13.714;2023-10-13T09:17:48;33.63;;;19.80;;
77158;SDS011;66129;45.890;13.714;2023-10-13T09:20:15;40.05;;;21.40;;
77158;SDS011;66129;45.890;13.714;2023-10-13T09:22:51;35.92;;;21.50;;
77158;SDS011;66129;45.890;13.714;2023-10-13T09:25:32;40.92;;;21.83;;
77158;SDS011;66129;45.890;13.714;2023-10-13T09:28:03;40.30;;;21.63;;
77158;SDS011;66129;45.890;13.714;2023-10-13T09:30:42;45.70;;;22.88;;
77158;SDS011;66129;45.890;13.714;2023-10-13T09:33:11;38.35;;;21.63;;
77158;SDS011;66129;45.890;13.714;2023-10-13T09:35:46;39.45;;;21.73;;
77158;SDS011;66129;45.890;13.714;2023-10-13T09:38:17;43.78;;;22.83;;
77158;SDS011;66129;45.890;13.714;2023-10-13T09:40:44;42.95;;;23.17;;
77158;SDS011;66129;45.890;13.714;2023-10-13T09:43:16;46.03;;;22.73;;
77158;SDS011;66129;45.890;13.714;2023-10-13T09:45:43;41.60;;;22.10;;
77158;SDS011;66129;45.890;13.714;2023-10-13T09:48:33;43.67;;;25.85;;
77158;SDS011;66129;45.890;13.714;2023-10-13T09:51:01;40.08;;;21.98;;
77158;SDS011;66129;45.890;13.714;2023-10-13T09:53:34;47.33;;;24.02;;
77158;SDS011;66129;45.890;13.714;2023-10-13T09:56:07;50.30;;;23.90;;
77158;SDS011;66129;45.890;13.714;2023-10-13T09:59:03;44.38;;;21.45;;
77158;SDS011;66129;45.890;13.714;2023-10-13T10:01:39;38.90;;;20.85;;
77158;SDS011;66129;45.890;13.714;2023-10-13T10:04:15;41.42;;;21.85;;
77158;SDS011;66129;45.890;13.714;2023-10-13T10:06:51;46.03;;;22.58;;
77158;SDS011;66129;45.890;13.714;2023-10-13T10:09:17;41.90;;;20.80;;
77158;SDS011;66129;45.890;13.714;2023-10-13T10:17:07;42.33;;;22.42;;
77158;SDS011;66129;45.890;13.714;2023-10-13T10:19:54;42.90;;;22.60;;
77158;SDS011;66129;45.890;13.714;2023-10-13T10:22:26;40.70;;;22.02;;
77158;SDS011;66129;45.890;13.714;2023-10-13T10:24:56;42.58;;;22.30;;
77158;SDS011;66129;45.890;13.714;2023-10-13T10:27:28;44.35;;;21.88;;
77158;SDS011;66129;45.890;13.714;2023-10-13T10:29:55;41.25;;;21.27;;
77158;SDS011;66129;45.890;13.714;2023-10-13T10:32:31;42.60;;;22.67;;
77158;SDS011;66129;45.890;13.714;2023-10-13T10:35:07;42.38;;;23.35;;
77158;SDS011;66129;45.890;13.714;2023-10-13T10:37:41;46.83;;;24.02;;
77158;SDS011;66129;45.890;13.714;2023-10-13T10:42:52;41.55;;;22.80;;
77158;SDS011;66129;45.890;13.714;2023-10-13T10:45:17;48.17;;;22.67;;
77158;SDS011;66129;45.890;13.714;2023-10-13T10:47:47;46.90;;;23.48;;
77158;SDS011;66129;45.890;13.714;2023-10-13T10:50:13;47.75;;;22.48;;
77158;SDS011;66129;45.890;13.714;2023-10-13T10:52:52;43.85;;;23.30;;
77158;SDS011;66129;45.890;13.714;2023-10-13T10:55:22;46.72;;;24.77;;
77158;SDS011;66129;45.890;13.714;2023-10-13T10:57:59;48.28;;;25.67;;
77158;SDS011;66129;45.890;13.714;2023-10-13T11:00:32;40.00;;;22.75;;
77158;SDS011;66129;45.890;13.714;2023-10-13T11:03:11;43.33;;;22.88;;
77158;SDS011;66129;45.890;13.714;2023-10-13T11:05:47;44.35;;;23.42;;
77158;SDS011;66129;45.890;13.714;2023-10-13T11:08:22;43.88;;;23.10;;
77158;SDS011;66129;45.890;13.714;2023-10-13T11:11:02;40.08;;;22.27;;
77158;SDS011;66129;45.890;13.714;2023-10-13T11:13:43;47.20;;;24.88;;
77158;SDS011;66129;45.890;13.714;2023-10-13T11:16:28;57.53;;;26.13;;
77158;SDS011;66129;45.890;13.714;2023-10-13T11:19:02;46.05;;;24.42;;
77158;SDS011;66129;45.890;13.714;2023-10-13T11:21:30;48.03;;;25.65;;
77158;SDS011;66129;45.890;13.714;2023-10-13T11:23:56;58.00;;;29.50;;
77158;SDS011;66129;45.890;13.714;2023-10-13T11:26:33;47.85;;;24.75;;
77158;SDS011;66129;45.890;13.714;2023-10-13T11:28:59;47.33;;;25.85;;
77158;SDS011;66129;45.890;13.714;2023-10-13T11:31:24;54.05;;;24.85;;
77158;SDS011;66129;45.890;13.714;2023-10-13T11:33:50;51.15;;;24.73;;
77158;SDS011;66129;45.890;13.714;2023-10-13T11:36:17;57.42;;;27.20;;
77158;SDS011;66129;45.890;13.714;2023-10-13T11:38:47;52.13;;;24.27;;
77158;SDS011;66129;45.890;13.714;2023-10-13T11:41:12;52.38;;;25.55;;
77158;SDS011;66129;45.890;13.714;2023-10-13T11:43:49;43.97;;;25.33;;
77158;SDS011;66129;45.890;13.714;2023-10-13T11:46:16;43.95;;;24.20;;
77158;SDS011;66129;45.890;13.714;2023-10-13T11:49:06;41.85;;;21.60;;
77158;SDS011;66129;45.890;13.714;2023-10-13T11:51:38;44.65;;;22.92;;
77158;SDS011;66129;45.890;13.714;2023-10-13T11:54:20;42.88;;;21.00;;
77158;SDS011;66129;45.890;13.714;2023-10-13T11:56:48;37.17;;;18.92;;
77158;SDS011;66129;45.890;13.714;2023-10-13T11:59:15;41.67;;;20.52;;
77158;SDS011;66129;45.890;13.714;2023-10-13T12:01:44;39.33;;;19.75;;
77158;SDS011;66129;45.890;13.714;2023-10-13T12:04:29;43.67;;;20.77;;
77158;SDS011;66129;45.890;13.714;2023-10-13T12:07:09;40.90;;;20.92;;
77158;SDS011;66129;45.890;13.714;2023-10-13T12:10:10;36.13;;;19.02;;
77158;SDS011;66129;45.890;13.714;2023-10-13T12:12:58;43.50;;;21.10;;
77158;SDS011;66129;45.890;13.714;2023-10-13T12:15:30;50.10;;;22.50;;
77158;SDS011;66129;45.890;13.714;2023-10-13T12:18:02;48.28;;;23.10;;
77158;SDS011;66129;45.890;13.714;2023-10-13T12:20:29;38.17;;;21.73;;
77158;SDS011;66129;45.890;13.714;2023-10-13T12:23:01;35.88;;;21.20;;
77158;SDS011;66129;45.890;13.714;2023-10-13T12:25:35;52.58;;;23.52;;
77158;SDS011;66129;45.890;13.714;2023-10-13T12:28:19;44.10;;;20.23;;
77158;SDS011;66129;45.890;13.714;2023-10-13T12:30:46;37.20;;;21.70;;
77158;SDS011;66129;45.890;13.714;2023-10-13T12:33:16;38.95;;;20.40;;
77158;SDS011;66129;45.890;13.714;2023-10-13T12:35:56;43.10;;;22.00;;
77158;SDS011;66129;45.890;13.714;2023-10-13T12:38:39;40.35;;;22.35;;
77158;SDS011;66129;45.890;13.714;2023-10-13T12:41:11;43.40;;;22.70;;
77158;SDS011;66129;45.890;13.714;2023-10-13T12:43:55;42.80;;;22.67;;
77158;SDS011;66129;45.890;13.714;2023-10-13T12:46:39;48.38;;;24.10;;
77158;SDS011;66129;45.890;13.714;2023-10-13T12:49:23;37.53;;;21.35;;
77158;SDS011;66129;45.890;13.714;2023-10-13T12:52:06;38.33;;;21.42;;
77158;SDS011;66129;45.890;13.714;2023-10-13T12:54:42;41.80;;;22.42;;
77158;SDS011;66129;45.890;13.714;2023-10-13T12:57:12;40.13;;;21.50;;
77158;SDS011;66129;45.890;13.714;2023-10-13T12:59:41;43.53;;;21.77;;
77158;SDS011;66129;45.890;13.714;2023-10-13T13:02:07;40.65;;;21.98;;
77158;SDS011;66129;45.890;13.714;2023-10-13T13:04:40;43.97;;;21.92;;
77158;SDS011;66129;45.890;13.714;2023-10-13T13:07:13;38.83;;;21.23;;
77158;SDS011;66129;45.890;13.714;2023-10-13T13:09:39;46.38;;;23.35;;
77158;SDS011;66129;45.890;13.714;2023-10-13T13:12:06;45.15;;;22.20;;
77158;SDS011;66129;45.890;13.714;2023-10-13T13:14:31;43.85;;;21.00;;
77158;SDS011;66129;45.890;13.714;2023-10-13T13:16:59;44.08;;;22.20;;
77158;SDS011;66129;45.890;13.714;2023-10-13T13:19:34;42.25;;;21.58;;
77158;SDS011;66129;45.890;13.714;2023-10-13T13:22:07;44.58;;;22.17;;
77158;SDS011;66129;45.890;13.714;2023-10-13T13:24:39;38.85;;;21.77;;
77158;SDS011;66129;45.890;13.714;2023-10-13T13:27:16;50.47;;;21.88;;
77158;SDS011;66129;45.890;13.714;2023-10-13T13:29:48;34.60;;;19.60;;
77158;SDS011;66129;45.890;13.714;2023-10-13T13:32:14;30.25;;;19.40;;
77158;SDS011;66129;45.890;13.714;2023-10-13T13:34:53;38.05;;;19.73;;
77158;SDS011;66129;45.890;13.714;2023-10-13T13:37:33;41.03;;;19.98;;
77158;SDS011;66129;45.890;13.714;2023-10-13T13:40:05;28.15;;;18.13;;
77158;SDS011;66129;45.890;13.714;2023-10-13T13:42:41;39.75;;;19.15;;
77158;SDS011;66129;45.890;13.714;2023-10-13T13:45:17;39.22;;;19.58;;
77158;SDS011;66129;45.890;13.714;2023-10-13T13:47:48;37.22;;;20.30;;
77158;SDS011;66129;45.890;13.714;2023-10-13T13:50:24;38.05;;;18.67;;
77158;SDS011;66129;45.890;13.714;2023-10-13T13:52:54;33.67;;;19.05;;
77158;SDS011;66129;45.890;13.714;2023-10-13T13:55:24;34.72;;;19.60;;
77158;SDS011;66129;45.890;13.714;2023-10-13T13:57:55;43.30;;;20.15;;
77158;SDS011;66129;45.890;13.714;2023-10-13T14:00:21;35.47;;;18.90;;
77158;SDS011;66129;45.890;13.714;2023-10-13T14:03:07;38.22;;;18.17;;
77158;SDS011;66129;45.890;13.714;2023-10-13T14:05:56;36.83;;;19.98;;
77158;SDS011;66129;45.890;13.714;2023-10-13T14:08:24;33.28;;;16.98;;
77158;SDS011;66129;45.890;13.714;2023-10-13T14:10:51;37.55;;;19.17;;
77158;SDS011;66129;45.890;13.714;2023-10-13T14:13:35;39.08;;;19.48;;
77158;SDS011;66129;45.890;13.714;2023-10-13T14:16:13;38.40;;;20.10;;
77158;SDS011;66129;45.890;13.714;2023-10-13T14:18:49;60.78;;;23.63;;
77158;SDS011;66129;45.890;13.714;2023-10-13T14:21:16;70.00;;;27.17;;
77158;SDS011;66129;45.890;13.714;2023-10-13T14:23:47;33.15;;;18.42;;
77158;SDS011;66129;45.890;13.714;2023-10-13T14:26:17;33.72;;;17.95;;
77158;SDS011;66129;45.890;13.714;2023-10-13T14:28:45;33.08;;;18.48;;
77158;SDS011;66129;45.890;13.714;2023-10-13T14:31:25;43.85;;;19.92;;
77158;SDS011;66129;45.890;13.714;2023-10-13T14:33:54;41.42;;;18.73;;
77158;SDS011;66129;45.890;13.714;2023-10-13T14:36:19;43.08;;;20.08;;
77158;SDS011;66129;45.890;13.714;2023-10-13T14:38:47;37.45;;;19.10;;
77158;SDS011;66129;45.890;13.714;2023-10-13T14:41:16;36.58;;;20.20;;
77158;SDS011;66129;45.890;13.714;2023-10-13T14:43:43;37.17;;;19.77;;
77158;SDS011;66129;45.890;13.714;2023-10-13T14:46:15;35.47;;;19.42;;
77158;SDS011;66129;45.890;13.714;2023-10-13T14:48:44;38.75;;;20.02;;
77158;SDS011;66129;45.890;13.714;2023-10-13T14:51:13;39.00;;;19.92;;
77158;SDS011;66129;45.890;13.714;2023-10-13T14:53:42;32.75;;;19.00;;
77158;SDS011;66129;45.890;13.714;2023-10-13T14:58:36;33.63;;;19.27;;
77158;SDS011;66129;45.890;13.714;2023-10-13T15:01:16;42.92;;;19.75;;
77158;SDS011;66129;45.890;13.714;2023-10-13T15:03:43;41.47;;;21.05;;
77158;SDS011;66129;45.890;13.714;2023-10-13T15:06:19;34.67;;;18.25;;
77158;SDS011;66129;45.890;13.714;2023-10-13T15:08:46;36.00;;;19.13;;
77158;SDS011;66129;45.890;13.714;2023-10-13T15:11:13;42.50;;;20.88;;
77158;SDS011;66129;45.890;13.714;2023-10-13T15:13:42;40.63;;;18.05;;
77158;SDS011;66129;45.890;13.714;2023-10-13T15:16:17;34.53;;;19.75;;
77158;SDS011;66129;45.890;13.714;2023-10-13T15:18:45;39.10;;;19.90;;
77158;SDS011;66129;45.890;13.714;2023-10-13T15:21:12;34.42;;;18.73;;
77158;SDS011;66129;45.890;13.714;2023-10-13T15:23:48;36.03;;;19.95;;